sensor_id;sensor_type;location;lat;lon;timestamp;temperature;humidity
10306;DHT22;5198;52.382;9.020;2023-02-28T00:01:06;0.80;99.90
10306;DHT22;5198;52.382;9.020;2023-02-28T00:05:10;0.70;99.90
10306;DHT22;5198;52.382;9.020;2023-02-28T00:09:13;0.70;99.90
10306;DHT22;5198;52.382;9.020;2023-02-28T00:13:16;0.70;99.90
10306;DHT22;5198;52.382;9.020;2023-02-28T00:17:20;0.60;99.90
10306;DHT22;5198;52.382;9.020;2023-02-28T00:21:23;0.60;99.90
10306;DHT22;5198;52.382;9.020;2023-02-28T00:25:27;0.60;99.90
10306;DHT22;5198;52.382;9.020;2023-02-28T00:29:30;0.60;99.90
10306;DHT22;5198;52.382;9.020;2023-02-28T00:33:34;0.50;99.90
10306;DHT22;5198;52.382;9.020;2023-02-28T00:37:37;0.50;99.90
10306;DHT22;5198;52.382;9.020;2023-02-28T00:41:40;0.50;99.90
10306;DHT22;5198;52.382;9.020;2023-02-28T00:45:43;0.50;99.90
10306;DHT22;5198;52.382;9.020;2023-02-28T00:49:47;0.40;99.90
10306;DHT22;5198;52.382;9.020;2023-02-28T00:53:50;0.40;99.90
10306;DHT22;5198;52.382;9.020;2023-02-28T00:57:53;0.30;99.90
10306;DHT22;5198;52.382;9.020;2023-02-28T01:01:56;0.30;99.90
10306;DHT22;5198;52.382;9.020;2023-02-28T01:06:01;0.20;99.90
10306;DHT22;5198;52.382;9.020;2023-02-28T01:10:04;0.20;99.90
10306;DHT22;5198;52.382;9.020;2023-02-28T01:14:08;0.20;99.90
10306;DHT22;5198;52.382;9.020;2023-02-28T01:18:11;0.10;99.90
10306;DHT22;5198;52.382;9.020;2023-02-28T01:22:15;0.10;99.90
10306;DHT22;5198;52.382;9.020;2023-02-28T01:26:18;0.00;99.90
10306;DHT22;5198;52.382;9.020;2023-02-28T01:30:21;0.00;99.90
10306;DHT22;5198;52.382;9.020;2023-02-28T01:34:24;-0.10;99.90
10306;DHT22;5198;52.382;9.020;2023-02-28T01:38:29;-0.10;99.90
10306;DHT22;5198;52.382;9.020;2023-02-28T01:42:31;-0.10;99.90
10306;DHT22;5198;52.382;9.020;2023-02-28T01:46:35;-0.20;99.90
10306;DHT22;5198;52.382;9.020;2023-02-28T01:50:39;-0.20;99.90
10306;DHT22;5198;52.382;9.020;2023-02-28T01:54:43;-0.20;99.90
10306;DHT22;5198;52.382;9.020;2023-02-28T01:58:48;-0.30;99.90
10306;DHT22;5198;52.382;9.020;2023-02-28T02:02:52;-0.30;99.90
10306;DHT22;5198;52.382;9.020;2023-02-28T02:06:56;-0.40;99.90
10306;DHT22;5198;52.382;9.020;2023-02-28T02:11:02;-0.50;99.90
10306;DHT22;5198;52.382;9.020;2023-02-28T02:15:06;-0.50;99.90
10306;DHT22;5198;52.382;9.020;2023-02-28T02:19:15;-0.60;99.90
10306;DHT22;5198;52.382;9.020;2023-02-28T02:23:31;-0.60;99.90
10306;DHT22;5198;52.382;9.020;2023-02-28T02:32:12;-0.70;99.90
10306;DHT22;5198;52.382;9.020;2023-02-28T02:36:19;-0.80;99.90
10306;DHT22;5198;52.382;9.020;2023-02-28T02:40:23;-0.80;99.90
10306;DHT22;5198;52.382;9.020;2023-02-28T02:44:31;-0.80;99.90
10306;DHT22;5198;52.382;9.020;2023-02-28T02:48:37;-0.80;99.90
10306;DHT22;5198;52.382;9.020;2023-02-28T02:52:44;-0.80;99.90
10306;DHT22;5198;52.382;9.020;2023-02-28T02:56:48;-0.80;99.90
10306;DHT22;5198;52.382;9.020;2023-02-28T03:00:51;-0.80;99.90
10306;DHT22;5198;52.382;9.020;2023-02-28T03:04:56;-0.80;99.90
10306;DHT22;5198;52.382;9.020;2023-02-28T03:09:04;-0.80;99.90
10306;DHT22;5198;52.382;9.020;2023-02-28T03:13:33;-0.90;99.90
10306;DHT22;5198;52.382;9.020;2023-02-28T03:17:45;-0.90;99.90
10306;DHT22;5198;52.382;9.020;2023-02-28T03:21:53;-0.90;99.90
10306;DHT22;5198;52.382;9.020;2023-02-28T03:26:01;-0.90;99.90
10306;DHT22;5198;52.382;9.020;2023-02-28T03:30:05;-1.00;99.90
10306;DHT22;5198;52.382;9.020;2023-02-28T03:34:12;-1.10;99.90
10306;DHT22;5198;52.382;9.020;2023-02-28T03:38:18;-1.10;99.90
10306;DHT22;5198;52.382;9.020;2023-02-28T03:42:25;-1.20;99.90
10306;DHT22;5198;52.382;9.020;2023-02-28T03:46:30;-1.30;99.90
10306;DHT22;5198;52.382;9.020;2023-02-28T03:50:35;-1.30;99.90
10306;DHT22;5198;52.382;9.020;2023-02-28T03:54:40;-1.40;99.90
10306;DHT22;5198;52.382;9.020;2023-02-28T03:58:46;-1.50;99.90
10306;DHT22;5198;52.382;9.020;2023-02-28T04:02:50;-1.50;99.90
10306;DHT22;5198;52.382;9.020;2023-02-28T04:07:00;-1.60;99.90
10306;DHT22;5198;52.382;9.020;2023-02-28T04:11:04;-1.60;99.90
10306;DHT22;5198;52.382;9.020;2023-02-28T04:15:10;-1.70;99.90
10306;DHT22;5198;52.382;9.020;2023-02-28T04:19:14;-1.70;99.90
10306;DHT22;5198;52.382;9.020;2023-02-28T04:23:17;-1.80;99.90
10306;DHT22;5198;52.382;9.020;2023-02-28T04:27:20;-1.80;99.90
10306;DHT22;5198;52.382;9.020;2023-02-28T04:31:24;-1.80;99.90
10306;DHT22;5198;52.382;9.020;2023-02-28T04:35:27;-1.90;99.90
10306;DHT22;5198;52.382;9.020;2023-02-28T04:39:34;-1.90;99.90
10306;DHT22;5198;52.382;9.020;2023-02-28T04:43:37;-1.90;99.90
10306;DHT22;5198;52.382;9.020;2023-02-28T04:47:41;-1.90;99.90
10306;DHT22;5198;52.382;9.020;2023-02-28T04:51:44;-2.00;99.90
10306;DHT22;5198;52.382;9.020;2023-02-28T04:55:47;-2.00;99.90
10306;DHT22;5198;52.382;9.020;2023-02-28T04:59:51;-2.00;99.90
10306;DHT22;5198;52.382;9.020;2023-02-28T05:03:56;-2.10;99.90
10306;DHT22;5198;52.382;9.020;2023-02-28T05:07:59;-2.10;99.90
10306;DHT22;5198;52.382;9.020;2023-02-28T05:12:02;-2.10;99.90
10306;DHT22;5198;52.382;9.020;2023-02-28T05:16:05;-2.20;99.90
10306;DHT22;5198;52.382;9.020;2023-02-28T05:20:10;-2.20;99.90
10306;DHT22;5198;52.382;9.020;2023-02-28T05:24:16;-2.20;99.90
10306;DHT22;5198;52.382;9.020;2023-02-28T05:28:24;-2.30;99.90
10306;DHT22;5198;52.382;9.020;2023-02-28T05:32:26;-2.30;99.90
10306;DHT22;5198;52.382;9.020;2023-02-28T05:36:31;-2.30;99.90
10306;DHT22;5198;52.382;9.020;2023-02-28T05:40:34;-2.30;99.90
10306;DHT22;5198;52.382;9.020;2023-02-28T05:44:36;-2.40;99.90
10306;DHT22;5198;52.382;9.020;2023-02-28T05:48:40;-2.40;99.90
10306;DHT22;5198;52.382;9.020;2023-02-28T05:52:44;-2.40;99.90
10306;DHT22;5198;52.382;9.020;2023-02-28T05:56:51;-2.40;99.90
10306;DHT22;5198;52.382;9.020;2023-02-28T06:00:54;-2.40;99.90
10306;DHT22;5198;52.382;9.020;2023-02-28T06:04:57;-2.50;99.90
10306;DHT22;5198;52.382;9.020;2023-02-28T06:09:01;-2.50;99.90
10306;DHT22;5198;52.382;9.020;2023-02-28T06:13:04;-2.60;99.90
10306;DHT22;5198;52.382;9.020;2023-02-28T06:17:08;-2.60;99.90
10306;DHT22;5198;52.382;9.020;2023-02-28T06:21:11;-2.60;99.90
10306;DHT22;5198;52.382;9.020;2023-02-28T06:25:16;-2.60;99.90
10306;DHT22;5198;52.382;9.020;2023-02-28T06:29:18;-2.70;99.90
10306;DHT22;5198;52.382;9.020;2023-02-28T06:33:21;-2.60;99.90
10306;DHT22;5198;52.382;9.020;2023-02-28T06:41:31;-2.60;99.90
10306;DHT22;5198;52.382;9.020;2023-02-28T06:45:55;-2.60;99.90
10306;DHT22;5198;52.382;9.020;2023-02-28T06:49:58;-2.60;99.90
10306;DHT22;5198;52.382;9.020;2023-02-28T06:54:03;-2.50;99.90
10306;DHT22;5198;52.382;9.020;2023-02-28T06:58:11;-2.30;99.90
10306;DHT22;5198;52.382;9.020;2023-02-28T07:02:19;-2.20;99.90
10306;DHT22;5198;52.382;9.020;2023-02-28T07:06:22;-2.00;99.90
10306;DHT22;5198;52.382;9.020;2023-02-28T07:10:25;-1.80;99.90
10306;DHT22;5198;52.382;9.020;2023-02-28T07:14:29;-1.50;99.90
10306;DHT22;5198;52.382;9.020;2023-02-28T07:18:42;-1.00;99.90
10306;DHT22;5198;52.382;9.020;2023-02-28T07:22:45;-0.40;99.90
10306;DHT22;5198;52.382;9.020;2023-02-28T07:26:49;0.40;99.90
10306;DHT22;5198;52.382;9.020;2023-02-28T07:31:04;1.30;99.90
10306;DHT22;5198;52.382;9.020;2023-02-28T07:35:07;2.10;99.90
10306;DHT22;5198;52.382;9.020;2023-02-28T07:39:10;3.00;99.90
10306;DHT22;5198;52.382;9.020;2023-02-28T07:43:13;3.60;99.90
10306;DHT22;5198;52.382;9.020;2023-02-28T07:47:17;3.90;99.90
10306;DHT22;5198;52.382;9.020;2023-02-28T07:51:21;3.90;99.90
10306;DHT22;5198;52.382;9.020;2023-02-28T07:55:24;3.70;99.90
10306;DHT22;5198;52.382;9.020;2023-02-28T07:59:27;3.40;99.90
10306;DHT22;5198;52.382;9.020;2023-02-28T08:03:34;3.20;99.90
10306;DHT22;5198;52.382;9.020;2023-02-28T08:07:37;3.40;99.90
10306;DHT22;5198;52.382;9.020;2023-02-28T08:11:39;3.90;99.90
10306;DHT22;5198;52.382;9.020;2023-02-28T08:15:42;4.70;99.90
10306;DHT22;5198;52.382;9.020;2023-02-28T08:19:48;5.50;99.90
10306;DHT22;5198;52.382;9.020;2023-02-28T08:23:51;6.40;99.90
10306;DHT22;5198;52.382;9.020;2023-02-28T08:28:04;7.20;99.90
10306;DHT22;5198;52.382;9.020;2023-02-28T08:32:07;7.90;99.90
10306;DHT22;5198;52.382;9.020;2023-02-28T08:36:30;8.60;99.90
10306;DHT22;5198;52.382;9.020;2023-02-28T08:40:33;9.20;99.90
10306;DHT22;5198;52.382;9.020;2023-02-28T08:44:36;9.80;99.90
10306;DHT22;5198;52.382;9.020;2023-02-28T08:48:39;10.50;99.90
10306;DHT22;5198;52.382;9.020;2023-02-28T08:52:44;11.00;99.90
10306;DHT22;5198;52.382;9.020;2023-02-28T08:56:47;11.40;99.90
10306;DHT22;5198;52.382;9.020;2023-02-28T09:00:50;11.70;99.90
10306;DHT22;5198;52.382;9.020;2023-02-28T09:04:53;12.10;99.90
10306;DHT22;5198;52.382;9.020;2023-02-28T09:08:58;12.60;99.90
10306;DHT22;5198;52.382;9.020;2023-02-28T09:13:02;13.10;99.90
10306;DHT22;5198;52.382;9.020;2023-02-28T09:17:05;13.50;99.90
10306;DHT22;5198;52.382;9.020;2023-02-28T09:21:09;14.00;99.90
10306;DHT22;5198;52.382;9.020;2023-02-28T09:25:14;14.40;99.90
10306;DHT22;5198;52.382;9.020;2023-02-28T09:29:17;14.80;99.90
10306;DHT22;5198;52.382;9.020;2023-02-28T09:33:20;15.10;99.90
10306;DHT22;5198;52.382;9.020;2023-02-28T09:37:23;15.40;99.90
10306;DHT22;5198;52.382;9.020;2023-02-28T09:41:30;15.80;99.90
10306;DHT22;5198;52.382;9.020;2023-02-28T09:45:38;16.10;99.90
10306;DHT22;5198;52.382;9.020;2023-02-28T09:49:44;16.40;99.90
10306;DHT22;5198;52.382;9.020;2023-02-28T09:53:48;16.70;99.90
10306;DHT22;5198;52.382;9.020;2023-02-28T09:58:03;16.90;99.90
10306;DHT22;5198;52.382;9.020;2023-02-28T10:02:10;17.30;99.90
10306;DHT22;5198;52.382;9.020;2023-02-28T10:06:18;17.60;99.90
10306;DHT22;5198;52.382;9.020;2023-02-28T11:55:53;16.00;99.90
10306;DHT22;5198;52.382;9.020;2023-02-28T11:59:59;15.70;99.90
10306;DHT22;5198;52.382;9.020;2023-02-28T12:04:09;15.00;99.90
10306;DHT22;5198;52.382;9.020;2023-02-28T12:08:22;14.40;99.90
10306;DHT22;5198;52.382;9.020;2023-02-28T12:12:30;14.30;99.90
10306;DHT22;5198;52.382;9.020;2023-02-28T12:20:57;14.80;99.90
10306;DHT22;5198;52.382;9.020;2023-02-28T12:29:23;15.20;99.90
10306;DHT22;5198;52.382;9.020;2023-02-28T12:33:27;15.50;99.90
10306;DHT22;5198;52.382;9.020;2023-02-28T12:37:34;15.90;99.90
10306;DHT22;5198;52.382;9.020;2023-02-28T12:41:40;16.50;99.90
10306;DHT22;5198;52.382;9.020;2023-02-28T12:45:47;17.00;99.90
10306;DHT22;5198;52.382;9.020;2023-02-28T12:49:52;17.60;99.90
10306;DHT22;5198;52.382;9.020;2023-02-28T12:54:02;18.00;99.90
10306;DHT22;5198;52.382;9.020;2023-02-28T12:58:08;18.20;99.90
10306;DHT22;5198;52.382;9.020;2023-02-28T13:06:49;18.60;99.90
10306;DHT22;5198;52.382;9.020;2023-02-28T13:10:55;18.20;99.90
10306;DHT22;5198;52.382;9.020;2023-02-28T13:15:02;17.40;99.90
10306;DHT22;5198;52.382;9.020;2023-02-28T13:19:10;16.60;99.90
10306;DHT22;5198;52.382;9.020;2023-02-28T13:27:36;14.90;99.90
10306;DHT22;5198;52.382;9.020;2023-02-28T13:36:22;13.50;99.90
10306;DHT22;5198;52.382;9.020;2023-02-28T13:40:27;12.90;99.90
10306;DHT22;5198;52.382;9.020;2023-02-28T13:44:36;12.40;99.90
10306;DHT22;5198;52.382;9.020;2023-02-28T13:48:56;12.00;99.90
10306;DHT22;5198;52.382;9.020;2023-02-28T13:53:08;11.70;99.90
10306;DHT22;5198;52.382;9.020;2023-02-28T13:57:20;11.40;99.90
10306;DHT22;5198;52.382;9.020;2023-02-28T14:01:30;11.10;99.90
10306;DHT22;5198;52.382;9.020;2023-02-28T14:05:35;10.80;99.90
10306;DHT22;5198;52.382;9.020;2023-02-28T14:09:40;10.50;99.90
10306;DHT22;5198;52.382;9.020;2023-02-28T14:13:43;10.40;99.90
10306;DHT22;5198;52.382;9.020;2023-02-28T14:17:51;10.20;99.90
10306;DHT22;5198;52.382;9.020;2023-02-28T14:22:01;10.00;99.90
10306;DHT22;5198;52.382;9.020;2023-02-28T14:26:08;9.80;99.90
10306;DHT22;5198;52.382;9.020;2023-02-28T14:30:20;9.60;99.90
10306;DHT22;5198;52.382;9.020;2023-02-28T14:34:37;9.50;99.90
10306;DHT22;5198;52.382;9.020;2023-02-28T14:38:45;9.40;99.90
10306;DHT22;5198;52.382;9.020;2023-02-28T14:42:54;9.30;99.90
10306;DHT22;5198;52.382;9.020;2023-02-28T14:46:58;9.20;99.90
10306;DHT22;5198;52.382;9.020;2023-02-28T14:51:06;9.20;99.90
10306;DHT22;5198;52.382;9.020;2023-02-28T14:55:12;9.20;99.90
10306;DHT22;5198;52.382;9.020;2023-02-28T14:59:26;9.30;99.90
10306;DHT22;5198;52.382;9.020;2023-02-28T15:03:30;9.60;99.90
10306;DHT22;5198;52.382;9.020;2023-02-28T15:07:35;9.90;99.90
10306;DHT22;5198;52.382;9.020;2023-02-28T15:11:38;10.30;99.90
10306;DHT22;5198;52.382;9.020;2023-02-28T15:15:42;10.70;99.90
10306;DHT22;5198;52.382;9.020;2023-02-28T15:20:02;11.20;99.90
10306;DHT22;5198;52.382;9.020;2023-02-28T15:24:09;11.80;99.90
10306;DHT22;5198;52.382;9.020;2023-02-28T15:28:16;12.10;99.90
10306;DHT22;5198;52.382;9.020;2023-02-28T15:32:23;12.40;99.90
10306;DHT22;5198;52.382;9.020;2023-02-28T15:36:29;12.60;99.90
10306;DHT22;5198;52.382;9.020;2023-02-28T15:40:37;12.90;99.90
10306;DHT22;5198;52.382;9.020;2023-02-28T15:44:40;13.10;99.90
10306;DHT22;5198;52.382;9.020;2023-02-28T15:48:43;13.20;99.90
10306;DHT22;5198;52.382;9.020;2023-02-28T15:52:47;13.40;99.90
10306;DHT22;5198;52.382;9.020;2023-02-28T15:56:52;13.50;99.90
10306;DHT22;5198;52.382;9.020;2023-02-28T16:01:00;13.50;99.90
10306;DHT22;5198;52.382;9.020;2023-02-28T16:05:18;13.50;99.90
10306;DHT22;5198;52.382;9.020;2023-02-28T16:09:22;13.50;99.90
10306;DHT22;5198;52.382;9.020;2023-02-28T16:13:26;13.40;99.90
10306;DHT22;5198;52.382;9.020;2023-02-28T16:17:30;13.30;99.90
10306;DHT22;5198;52.382;9.020;2023-02-28T16:21:34;13.10;99.90
10306;DHT22;5198;52.382;9.020;2023-02-28T16:25:37;12.80;99.90
10306;DHT22;5198;52.382;9.020;2023-02-28T16:29:42;12.40;99.90
10306;DHT22;5198;52.382;9.020;2023-02-28T16:33:46;12.00;99.90
10306;DHT22;5198;52.382;9.020;2023-02-28T16:37:50;11.60;99.90
10306;DHT22;5198;52.382;9.020;2023-02-28T16:41:54;11.20;99.90
10306;DHT22;5198;52.382;9.020;2023-02-28T16:45:58;10.80;99.90
10306;DHT22;5198;52.382;9.020;2023-02-28T16:50:04;10.40;99.90
10306;DHT22;5198;52.382;9.020;2023-02-28T16:54:08;10.10;99.90
10306;DHT22;5198;52.382;9.020;2023-02-28T16:58:13;9.80;99.90
10306;DHT22;5198;52.382;9.020;2023-02-28T17:02:18;9.40;99.90
10306;DHT22;5198;52.382;9.020;2023-02-28T17:06:23;9.10;99.90
10306;DHT22;5198;52.382;9.020;2023-02-28T17:10:25;8.80;99.90
10306;DHT22;5198;52.382;9.020;2023-02-28T17:14:28;8.50;99.90
10306;DHT22;5198;52.382;9.020;2023-02-28T17:18:33;8.10;99.90
10306;DHT22;5198;52.382;9.020;2023-02-28T17:22:36;7.90;99.90
10306;DHT22;5198;52.382;9.020;2023-02-28T17:26:39;7.60;99.90
10306;DHT22;5198;52.382;9.020;2023-02-28T17:30:42;7.30;99.90
10306;DHT22;5198;52.382;9.020;2023-02-28T17:34:50;7.10;99.90
10306;DHT22;5198;52.382;9.020;2023-02-28T17:38:52;6.90;99.90
10306;DHT22;5198;52.382;9.020;2023-02-28T17:42:56;6.70;99.90
10306;DHT22;5198;52.382;9.020;2023-02-28T17:47:00;6.50;99.90
10306;DHT22;5198;52.382;9.020;2023-02-28T17:51:04;6.30;99.90
10306;DHT22;5198;52.382;9.020;2023-02-28T17:55:08;6.10;99.90
10306;DHT22;5198;52.382;9.020;2023-02-28T17:59:17;5.90;99.90
10306;DHT22;5198;52.382;9.020;2023-02-28T18:03:20;5.70;99.90
10306;DHT22;5198;52.382;9.020;2023-02-28T18:07:24;5.50;99.90
10306;DHT22;5198;52.382;9.020;2023-02-28T18:11:28;5.30;99.90
10306;DHT22;5198;52.382;9.020;2023-02-28T18:15:42;5.10;99.90
10306;DHT22;5198;52.382;9.020;2023-02-28T18:19:45;4.90;99.90
10306;DHT22;5198;52.382;9.020;2023-02-28T18:23:50;4.80;99.90
10306;DHT22;5198;52.382;9.020;2023-02-28T18:27:55;4.60;99.90
10306;DHT22;5198;52.382;9.020;2023-02-28T18:31:59;4.40;99.90
10306;DHT22;5198;52.382;9.020;2023-02-28T18:36:04;4.20;99.90
10306;DHT22;5198;52.382;9.020;2023-02-28T18:40:10;4.10;99.90
10306;DHT22;5198;52.382;9.020;2023-02-28T18:44:13;4.00;99.90
10306;DHT22;5198;52.382;9.020;2023-02-28T18:48:21;3.80;99.90
10306;DHT22;5198;52.382;9.020;2023-02-28T18:52:24;3.70;99.90
10306;DHT22;5198;52.382;9.020;2023-02-28T18:56:33;3.60;99.90
10306;DHT22;5198;52.382;9.020;2023-02-28T19:00:36;3.50;99.90
10306;DHT22;5198;52.382;9.020;2023-02-28T19:04:40;3.40;99.90
10306;DHT22;5198;52.382;9.020;2023-02-28T19:08:43;3.30;99.90
10306;DHT22;5198;52.382;9.020;2023-02-28T19:12:47;3.20;99.90
10306;DHT22;5198;52.382;9.020;2023-02-28T19:16:50;3.10;99.90
10306;DHT22;5198;52.382;9.020;2023-02-28T19:20:53;3.10;99.90
10306;DHT22;5198;52.382;9.020;2023-02-28T19:24:57;3.00;99.90
10306;DHT22;5198;52.382;9.020;2023-02-28T19:29:03;2.90;99.90
10306;DHT22;5198;52.382;9.020;2023-02-28T19:33:06;2.80;99.90
10306;DHT22;5198;52.382;9.020;2023-02-28T19:37:10;2.80;99.90
10306;DHT22;5198;52.382;9.020;2023-02-28T19:41:15;2.70;99.90
10306;DHT22;5198;52.382;9.020;2023-02-28T19:45:20;2.60;99.90
10306;DHT22;5198;52.382;9.020;2023-02-28T19:49:22;2.50;99.90
10306;DHT22;5198;52.382;9.020;2023-02-28T19:53:28;2.40;99.90
10306;DHT22;5198;52.382;9.020;2023-02-28T19:57:32;2.30;99.90
10306;DHT22;5198;52.382;9.020;2023-02-28T20:01:36;2.30;99.90
10306;DHT22;5198;52.382;9.020;2023-02-28T20:05:39;2.20;99.90
10306;DHT22;5198;52.382;9.020;2023-02-28T20:09:42;2.10;99.90
10306;DHT22;5198;52.382;9.020;2023-02-28T20:13:46;2.10;99.90
10306;DHT22;5198;52.382;9.020;2023-02-28T20:17:50;2.00;99.90
10306;DHT22;5198;52.382;9.020;2023-02-28T20:21:53;1.90;99.90
10306;DHT22;5198;52.382;9.020;2023-02-28T20:25:57;1.80;99.90
10306;DHT22;5198;52.382;9.020;2023-02-28T20:30:00;1.80;99.90
10306;DHT22;5198;52.382;9.020;2023-02-28T20:34:04;1.70;99.90
10306;DHT22;5198;52.382;9.020;2023-02-28T20:38:07;1.70;99.90
10306;DHT22;5198;52.382;9.020;2023-02-28T20:42:10;1.60;99.90
10306;DHT22;5198;52.382;9.020;2023-02-28T20:46:13;1.50;99.90
10306;DHT22;5198;52.382;9.020;2023-02-28T20:50:17;1.40;99.90
10306;DHT22;5198;52.382;9.020;2023-02-28T20:54:20;1.30;99.90
10306;DHT22;5198;52.382;9.020;2023-02-28T20:58:24;1.20;99.90
10306;DHT22;5198;52.382;9.020;2023-02-28T21:02:27;1.20;99.90
10306;DHT22;5198;52.382;9.020;2023-02-28T21:06:33;1.10;99.90
10306;DHT22;5198;52.382;9.020;2023-02-28T21:10:36;1.00;99.90
10306;DHT22;5198;52.382;9.020;2023-02-28T21:14:42;0.90;99.90
10306;DHT22;5198;52.382;9.020;2023-02-28T21:18:57;0.90;99.90
10306;DHT22;5198;52.382;9.020;2023-02-28T21:23:05;0.80;99.90
10306;DHT22;5198;52.382;9.020;2023-02-28T21:27:08;0.80;99.90
10306;DHT22;5198;52.382;9.020;2023-02-28T21:31:13;0.70;99.90
10306;DHT22;5198;52.382;9.020;2023-02-28T21:35:17;0.70;99.90
10306;DHT22;5198;52.382;9.020;2023-02-28T21:39:22;0.70;99.90
10306;DHT22;5198;52.382;9.020;2023-02-28T21:43:29;0.60;99.90
10306;DHT22;5198;52.382;9.020;2023-02-28T21:47:38;0.60;99.90
10306;DHT22;5198;52.382;9.020;2023-02-28T21:51:42;0.50;99.90
10306;DHT22;5198;52.382;9.020;2023-02-28T21:55:47;0.50;99.90
10306;DHT22;5198;52.382;9.020;2023-02-28T21:59:51;0.40;99.90
10306;DHT22;5198;52.382;9.020;2023-02-28T22:03:54;0.30;99.90
10306;DHT22;5198;52.382;9.020;2023-02-28T22:07:59;0.20;99.90
10306;DHT22;5198;52.382;9.020;2023-02-28T22:12:04;0.20;99.90
10306;DHT22;5198;52.382;9.020;2023-02-28T22:16:09;0.10;99.90
10306;DHT22;5198;52.382;9.020;2023-02-28T22:20:17;0.10;99.90
10306;DHT22;5198;52.382;9.020;2023-02-28T22:24:20;0.10;99.90
10306;DHT22;5198;52.382;9.020;2023-02-28T22:28:27;0.10;99.90
10306;DHT22;5198;52.382;9.020;2023-02-28T22:32:30;0.00;99.90
10306;DHT22;5198;52.382;9.020;2023-02-28T22:36:33;-0.10;99.90
10306;DHT22;5198;52.382;9.020;2023-02-28T22:40:44;-0.10;99.90
10306;DHT22;5198;52.382;9.020;2023-02-28T22:44:50;-0.20;99.90
10306;DHT22;5198;52.382;9.020;2023-02-28T22:48:52;-0.30;99.90
10306;DHT22;5198;52.382;9.020;2023-02-28T22:52:56;-0.30;99.90
10306;DHT22;5198;52.382;9.020;2023-02-28T22:57:00;-0.40;99.90
10306;DHT22;5198;52.382;9.020;2023-02-28T23:01:05;-0.40;99.90
10306;DHT22;5198;52.382;9.020;2023-02-28T23:05:10;-0.50;99.90
10306;DHT22;5198;52.382;9.020;2023-02-28T23:09:15;-0.50;99.90
10306;DHT22;5198;52.382;9.020;2023-02-28T23:13:19;-0.60;99.90
10306;DHT22;5198;52.382;9.020;2023-02-28T23:17:24;-0.60;99.90
10306;DHT22;5198;52.382;9.020;2023-02-28T23:21:29;-0.60;99.90
10306;DHT22;5198;52.382;9.020;2023-02-28T23:25:32;-0.70;99.90
10306;DHT22;5198;52.382;9.020;2023-02-28T23:29:35;-0.70;99.90
10306;DHT22;5198;52.382;9.020;2023-02-28T23:33:39;-0.80;99.90
10306;DHT22;5198;52.382;9.020;2023-02-28T23:37:42;-0.80;99.90
10306;DHT22;5198;52.382;9.020;2023-02-28T23:41:45;-0.90;99.90
10306;DHT22;5198;52.382;9.020;2023-02-28T23:45:53;-0.90;99.90
10306;DHT22;5198;52.382;9.020;2023-02-28T23:49:57;-1.00;99.90
10306;DHT22;5198;52.382;9.020;2023-02-28T23:58:06;-1.00;99.90
